Valkyrie — WDI4483 — position and weather

sailwx.info

Track history (hours):
 
Tides and Currents Weather Stations Pressure Air Temp Water Temp Dewpoint Dewpoint Depression Visibility Wind Speed Wind Dir Waves Ship Positions

Valkyrie

Owner: town of winthrop, winthrop, MA. More information available from US FCC via Universal Licensing System and Coast Guard Vessel Documentation Center.

Last reported at 2017-Oct-18 23:08 UTC. Time now 2017-Oct-19 09:10 UTC.
Position N 42°22' W 070°58'.

Length 17 m.

Type: Passenger vessel. MMSI: 367699130.

Date/timePositionNaut miles runAvg speedWind from/ knotsBaromVisibWave heightAir tempDewpointWater temp
2017-Oct-18 23:08N 42°22' W 070°58'110.6
2017-Oct-18 23:00N 42°21' W 070°59'2 4.2
2017-Oct-18 22:28N 42°19' W 071°01'2 4.1
2017-Oct-18 21:59N 42°21' W 071°02'2 4.5
2017-Oct-18 21:30N 42°21' W 070°59'1 1.7
2017-Oct-18 20:48N 42°20' W 070°60'3 8.2
2017-Oct-18 20:29N 42°21' W 071°03'3 5.9
2017-Oct-18 19:54N 42°22' W 070°58'3 8.5
2017-Oct-18 19:30N 42°21' W 071°03'3 6.5
2017-Oct-18 18:58N 42°22' W 070°58'1 0.2
2017-Oct-18 15:22N 42°21' W 070°59'3 6.1
2017-Oct-18 14:56N 42°22' W 071°02'0 0.5
2017-Oct-18 14:00N 42°21' W 071°03'3 2.9
2017-Oct-18 12:54N 42°22' W 070°58'3 5.9
2017-Oct-18 12:21N 42°21' W 071°03'3 9.3
2017-Oct-18 12:01N 42°21' W 070°59'1 1.1
2017-Oct-18 11:04N 42°20' W 070°60'115.8
2017-Oct-18 11:01N 42°21' W 070°59'1 2.9
2017-Oct-18 10:30N 42°22' W 070°58'0 0.0
2017-Oct-17 23:06N 42°22' W 070°58'111.5
2017-Oct-17 22:59N 42°21' W 070°59'1 1.9
2017-Oct-17 22:25N 42°20' W 070°60'2 4.6
2017-Oct-17 22:00N 42°21' W 071°02'2 4.3
2017-Oct-17 21:30N 42°21' W 070°59'2 3.8
2017-Oct-17 20:51N 42°19' W 071°01'3 7.0
2017-Oct-17 20:28N 42°21' W 071°03'3 4.6
2017-Oct-17 19:47N 42°21' W 070°59'311.4
2017-Oct-17 19:30N 42°21' W 071°03'3 0.8
2017-Oct-17 15:38N 42°21' W 070°59'215.4
2017-Oct-17 15:30N 42°21' W 071°01'1 2.5
2017-Oct-17 15:00N 42°21' W 071°03'2 3.3
2017-Oct-17 14:16N 42°20' W 071°00'2 9.4
2017-Oct-17 14:00N 42°21' W 071°03'3 2.8
2017-Oct-17 12:52N 42°21' W 070°59'3 6.7
2017-Oct-17 12:24N 42°21' W 071°03'3 8.1
2017-Oct-17 12:00N 42°21' W 070°59'3 3.3
2017-Oct-17 11:12N 42°19' W 071°01'3 9.3
2017-Oct-17 10:50N 42°22' W 070°58'0 0.0
2017-Oct-16 23:05N 42°22' W 070°58'1 5.0
2017-Oct-16 22:51N 42°21' W 070°59'0 1.0
2017-Oct-16 22:22N 42°20' W 070°59'3 6.7
2017-Oct-16 21:58N 42°21' W 071°03'3 4.2
2017-Oct-16 21:14N 42°22' W 070°59'3 7.6
2017-Oct-16 20:48N 42°19' W 071°01'3 6.3
2017-Oct-16 20:23N 42°21' W 071°03'3 5.5
2017-Oct-16 19:49N 42°21' W 070°59'3 6.9
2017-Oct-16 19:24N 42°21' W 071°03'3 0.8
2017-Oct-16 15:30N 42°22' W 070°59'3 6.1
2017-Oct-16 15:00N 42°21' W 071°03'3 3.9
2017-Oct-16 14:21N 42°19' W 071°01'3 2.3
2017-Oct-16 12:58N 42°22' W 070°59'3 5.1
2017-Oct-16 12:19N 42°21' W 071°03'310.2
2017-Oct-16 12:00N 42°21' W 070°59'1 1.2
2017-Oct-16 11:15N 42°20' W 070°59'2 0.2
2017-Oct-15 23:37N 42°22' W 070°58'112.1
2017-Oct-15 23:30N 42°21' W 070°59'3 5.7
2017-Oct-15 23:00N 42°21' W 071°03'2 3.2
2017-Oct-15 22:21N 42°20' W 071°00'2 6.0
2017-Oct-15 22:00N 42°21' W 071°03'3 4.2
2017-Oct-15 21:19N 42°21' W 070°59'3 9.5
2017-Oct-15 21:00N 42°21' W 071°03'2 3.2
2017-Oct-15 20:13N 42°20' W 071°00'3 9.9
2017-Oct-15 19:58N 42°21' W 071°03'3 0.9
2017-Oct-15 16:26N 42°21' W 070°59'3 6.0
2017-Oct-15 16:00N 42°22' W 071°02'2 2.9
2017-Oct-15 15:12N 42°20' W 070°60'311.3
2017-Oct-15 14:58N 42°21' W 071°03'3 0.3
2017-Oct-15 01:56N 42°22' W 070°58'2 4.4
2017-Oct-15 01:26N 42°20' W 071°00'2 5.1
2017-Oct-15 01:00N 42°21' W 071°03'3 2.3
2017-Oct-14 23:32N 42°22' W 070°58'118.8
2017-Oct-14 23:29N 42°21' W 070°59'3 5.7
2017-Oct-14 22:59N 42°21' W 071°03'2 2.8
2017-Oct-14 22:20N 42°20' W 071°00'2 5.8
2017-Oct-14 22:01N 42°21' W 071°03'3 5.0
2017-Oct-14 21:23N 42°22' W 070°58'3 8.7
2017-Oct-14 21:00N 42°21' W 071°03'3 3.4
2017-Oct-14 20:15N 42°20' W 071°00'310.3
2017-Oct-14 20:00N 42°21' W 071°03'3 0.9
2017-Oct-14 16:33N 42°21' W 070°59'118.7
2017-Oct-14 16:30N 42°21' W 070°59'3 6.3
2017-Oct-14 16:00N 42°22' W 071°03'3 3.2
2017-Oct-14 15:11N 42°20' W 071°00'3 9.3
2017-Oct-14 14:54N 42°21' W 071°03'3 5.6
2017-Oct-14 14:18N 42°22' W 070°58'1 0.1
2017-Oct-13 22:56N 42°21' W 070°59'1 2.8
2017-Oct-13 22:25N 42°20' W 070°60'2 4.2
2017-Oct-13 22:00N 42°21' W 071°01'2 3.2
2017-Oct-13 21:17N 42°22' W 070°59'3 7.3
2017-Oct-13 20:50N 42°19' W 071°01'3 6.1
2017-Oct-13 20:25N 42°21' W 071°03'3 5.1
2017-Oct-13 19:48N 42°21' W 070°59'3 9.9
2017-Oct-13 19:29N 42°21' W 071°03'3 0.9
2017-Oct-13 15:48N 42°22' W 070°59'3 5.2
2017-Oct-13 15:16N 42°22' W 071°02'1 2.0
2017-Oct-13 14:59N 42°21' W 071°03'2 3.3
2017-Oct-13 14:18N 42°20' W 071°00'2 7.3
2017-Oct-13 14:00N 42°21' W 071°03'3 3.0
2017-Oct-13 12:55N 42°22' W 070°58'3 5.5
2017-Oct-13 12:20N 42°21' W 071°03'3 5.5
2017-Oct-13 11:47N 42°22' W 070°59'3 5.5
2017-Oct-13 11:14N 42°19' W 071°01'4 7.1
2017-Oct-13 10:44N 42°22' W 070°58'0 0.0
2017-Oct-13 10:26N 42°22' W 070°58'0 0.0
2017-Oct-13 09:56N 42°22' W 070°58'0 0.0
2017-Oct-13 09:29N 42°22' W 070°58'0 0.0
2017-Oct-13 08:59N 42°22' W 070°58'0 0.0
2017-Oct-13 08:20N 42°22' W 070°58'0 0.0
2017-Oct-13 07:59N 42°22' W 070°58'0 0.0
2017-Oct-13 07:29N 42°22' W 070°58'0 0.0
2017-Oct-13 06:56N 42°22' W 070°58'0 0.0
2017-Oct-13 06:26N 42°22' W 070°58'0 0.0
2017-Oct-13 05:59N 42°22' W 070°58'0 0.0
2017-Oct-13 05:29N 42°22' W 070°58'0 0.0
2017-Oct-13 04:58N 42°22' W 070°58'0 0.0
2017-Oct-13 04:22N 42°22' W 070°58'0 0.0
2017-Oct-13 03:58N 42°22' W 070°58'0 0.0
2017-Oct-13 03:25N 42°22' W 070°58'0 0.0
2017-Oct-13 02:58N 42°22' W 070°58'0 0.0
2017-Oct-13 02:25N 42°22' W 070°58'0 0.0
2017-Oct-13 01:58N 42°22' W 070°58'0 0.0
2017-Oct-13 01:25N 42°22' W 070°58'0 0.0
2017-Oct-13 00:58N 42°22' W 070°58'1 1.9
2017-Oct-13 00:19N 42°21' W 070°59'3 7.5
2017-Oct-12 23:54N 42°21' W 071°03'3 3.5
2017-Oct-12 22:58N 42°22' W 070°59'2 3.7
2017-Oct-12 22:23N 42°20' W 070°60'1 3.4
2017-Oct-12 22:00N 42°21' W 071°01'2 3.5
2017-Oct-12 21:29N 42°22' W 070°59'3 3.7
2017-Oct-12 20:48N 42°19' W 071°01'2 5.5
2017-Oct-12 20:21N 42°21' W 071°03'3 4.5
2017-Oct-12 19:42N 42°21' W 070°59'314.2
2017-Oct-12 19:29N 42°21' W 071°03'3 0.9
2017-Oct-12 15:31N 42°22' W 070°58'0 5.2
2017-Oct-12 15:26N 42°22' W 070°59'2 4.8
2017-Oct-12 14:54N 42°22' W 071°02'4 7.7
2017-Oct-12 14:27N 42°18' W 071°02'3 7.2
2017-Oct-12 13:59N 42°21' W 071°03'3 2.5
2017-Oct-12 12:47N 42°21' W 070°59'310.4
2017-Oct-12 12:29N 42°21' W 071°03'3 6.5
2017-Oct-12 12:00N 42°21' W 070°59'2 2.7
2017-Oct-12 11:06N 42°19' W 071°01'222.4
2017-Oct-12 11:00N 42°21' W 070°59'1 2.4
2017-Oct-12 10:26N 42°22' W 070°58'0 0.0
2017-Oct-11 23:03N 42°22' W 070°58'1 7.8
2017-Oct-11 22:56N 42°21' W 070°59'1 2.2
2017-Oct-11 22:22N 42°20' W 070°59'2 5.7
2017-Oct-11 21:58N 42°21' W 071°02'2 3.2
2017-Oct-11 21:12N 42°21' W 070°59'1 2.8
2017-Oct-11 20:47N 42°20' W 071°00'2 6.1
2017-Oct-11 20:24N 42°21' W 071°03'3 4.4
2017-Oct-11 19:42N 42°21' W 070°59'315.2
2017-Oct-11 19:30N 42°21' W 071°03'3 4.1
2017-Oct-11 18:40N 42°22' W 070°58'0 0.0
2017-Oct-11 18:10N 42°22' W 070°58'0 0.0
2017-Oct-11 17:58N 42°22' W 070°58'0 0.0
2017-Oct-11 17:28N 42°22' W 070°58'0 0.0
2017-Oct-11 16:58N 42°22' W 070°58'0 0.0
2017-Oct-10 22:56N 42°22' W 070°59'1 2.1
2017-Oct-10 22:23N 42°20' W 070°59'2 4.3
2017-Oct-10 21:59N 42°21' W 071°01'2 3.8
2017-Oct-10 21:30N 42°21' W 070°59'1 1.8
2017-Oct-10 20:46N 42°20' W 071°00'2 7.7
2017-Oct-10 20:27N 42°21' W 071°03'3 4.6
2017-Oct-10 19:46N 42°21' W 070°59'3 8.4
2017-Oct-10 19:23N 42°21' W 071°03'3 0.8
2017-Oct-10 15:33N 42°21' W 070°59'117.1
2017-Oct-10 15:30N 42°20' W 070°60'3 4.8
2017-Oct-10 14:59N 42°21' W 071°03'0 0.2
2017-Oct-10 13:58N 42°21' W 071°03'3 2.9
2017-Oct-10 12:54N 42°22' W 070°58'3 6.8
2017-Oct-10 12:24N 42°21' W 071°03'3 7.7
2017-Oct-10 12:00N 42°21' W 070°59'2 1.9
2017-Oct-10 11:07N 42°20' W 070°60'2 5.2
2017-Oct-10 10:40N 42°22' W 070°58'0 0.0
2017-Oct-09 23:12N 42°22' W 070°58'1 4.5
2017-Oct-09 23:00N 42°21' W 070°59'2 2.6
2017-Oct-09 22:25N 42°20' W 070°60'3 5.4
2017-Oct-09 21:56N 42°21' W 071°03'3 4.2
2017-Oct-09 21:15N 42°21' W 070°59'1 2.9
2017-Oct-09 20:48N 42°20' W 070°60'3 6.4
2017-Oct-09 20:25N 42°21' W 071°03'3 5.3
2017-Oct-09 19:49N 42°22' W 070°59'310.0
2017-Oct-09 19:29N 42°21' W 071°03'3 0.8
2017-Oct-09 15:27N 42°22' W 070°58'2 4.0
2017-Oct-09 14:52N 42°21' W 071°01'2 3.2
2017-Oct-09 14:22N 42°20' W 070°60'3 6.4
2017-Oct-09 13:58N 42°21' W 071°03'3 3.2
2017-Oct-09 12:56N 42°22' W 070°58'3 7.8
2017-Oct-09 12:30N 42°21' W 071°03'3 6.2
2017-Oct-09 11:57N 42°22' W 070°58'2 2.6
2017-Oct-09 11:07N 42°20' W 070°59'2 5.2
2017-Oct-09 10:43N 42°22' W 070°58'0 0.0
2017-Oct-08 23:46N 42°22' W 070°58'2 7.1
2017-Oct-08 23:30N 42°20' W 070°60'  
Track history (hours):
 
Tides and Currents Weather Stations Pressure Air Temp Water Temp Dewpoint Dewpoint Depression Visibility Wind Speed Wind Dir Waves Ship Positions

Valkyrie

Owner: town of winthrop, winthrop, MA. More information available from US FCC via Universal Licensing System and Coast Guard Vessel Documentation Center.

Last reported at 2017-Oct-18 23:08 UTC. Time now 2017-Oct-19 09:10 UTC.
Position N 42°22' W 070°58'.

Length 17 m.

Type: Passenger vessel. MMSI: 367699130.

Date/timePositionNaut miles runAvg speedWind from/ knotsBaromVisibWave heightAir tempDewpointWater temp
2017-Oct-18 23:08N 42°22' W 070°58'110.6
2017-Oct-18 23:00N 42°21' W 070°59'2 4.2
2017-Oct-18 22:28N 42°19' W 071°01'2 4.1
2017-Oct-18 21:59N 42°21' W 071°02'2 4.5
2017-Oct-18 21:30N 42°21' W 070°59'1 1.7
2017-Oct-18 20:48N 42°20' W 070°60'3 8.2
2017-Oct-18 20:29N 42°21' W 071°03'3 5.9
2017-Oct-18 19:54N 42°22' W 070°58'3 8.5
2017-Oct-18 19:30N 42°21' W 071°03'3 6.5
2017-Oct-18 18:58N 42°22' W 070°58'1 0.2
2017-Oct-18 15:22N 42°21' W 070°59'3 6.1
2017-Oct-18 14:56N 42°22' W 071°02'0 0.5
2017-Oct-18 14:00N 42°21' W 071°03'3 2.9
2017-Oct-18 12:54N 42°22' W 070°58'3 5.9
2017-Oct-18 12:21N 42°21' W 071°03'3 9.3
2017-Oct-18 12:01N 42°21' W 070°59'1 1.1
2017-Oct-18 11:04N 42°20' W 070°60'115.8
2017-Oct-18 11:01N 42°21' W 070°59'1 2.9
2017-Oct-18 10:30N 42°22' W 070°58'0 0.0
2017-Oct-17 23:06N 42°22' W 070°58'111.5
2017-Oct-17 22:59N 42°21' W 070°59'1 1.9
2017-Oct-17 22:25N 42°20' W 070°60'2 4.6
2017-Oct-17 22:00N 42°21' W 071°02'2 4.3
2017-Oct-17 21:30N 42°21' W 070°59'2 3.8
2017-Oct-17 20:51N 42°19' W 071°01'3 7.0
2017-Oct-17 20:28N 42°21' W 071°03'3 4.6
2017-Oct-17 19:47N 42°21' W 070°59'311.4
2017-Oct-17 19:30N 42°21' W 071°03'3 0.8
2017-Oct-17 15:38N 42°21' W 070°59'215.4
2017-Oct-17 15:30N 42°21' W 071°01'1 2.5
2017-Oct-17 15:00N 42°21' W 071°03'2 3.3
2017-Oct-17 14:16N 42°20' W 071°00'2 9.4
2017-Oct-17 14:00N 42°21' W 071°03'3 2.8
2017-Oct-17 12:52N 42°21' W 070°59'3 6.7
2017-Oct-17 12:24N 42°21' W 071°03'3 8.1
2017-Oct-17 12:00N 42°21' W 070°59'3 3.3
2017-Oct-17 11:12N 42°19' W 071°01'3 9.3
2017-Oct-17 10:50N 42°22' W 070°58'0 0.0
2017-Oct-16 23:05N 42°22' W 070°58'1 5.0
2017-Oct-16 22:51N 42°21' W 070°59'0 1.0
2017-Oct-16 22:22N 42°20' W 070°59'3 6.7
2017-Oct-16 21:58N 42°21' W 071°03'3 4.2
2017-Oct-16 21:14N 42°22' W 070°59'3 7.6
2017-Oct-16 20:48N 42°19' W 071°01'3 6.3
2017-Oct-16 20:23N 42°21' W 071°03'3 5.5
2017-Oct-16 19:49N 42°21' W 070°59'3 6.9
2017-Oct-16 19:24N 42°21' W 071°03'3 0.8
2017-Oct-16 15:30N 42°22' W 070°59'3 6.1
2017-Oct-16 15:00N 42°21' W 071°03'3 3.9
2017-Oct-16 14:21N 42°19' W 071°01'3 2.3
2017-Oct-16 12:58N 42°22' W 070°59'3 5.1
2017-Oct-16 12:19N 42°21' W 071°03'310.2
2017-Oct-16 12:00N 42°21' W 070°59'1 1.2
2017-Oct-16 11:15N 42°20' W 070°59'2 0.2
2017-Oct-15 23:37N 42°22' W 070°58'112.1
2017-Oct-15 23:30N 42°21' W 070°59'3 5.7
2017-Oct-15 23:00N 42°21' W 071°03'2 3.2
2017-Oct-15 22:21N 42°20' W 071°00'2 6.0
2017-Oct-15 22:00N 42°21' W 071°03'3 4.2
2017-Oct-15 21:19N 42°21' W 070°59'3 9.5
2017-Oct-15 21:00N 42°21' W 071°03'2 3.2
2017-Oct-15 20:13N 42°20' W 071°00'3 9.9
2017-Oct-15 19:58N 42°21' W 071°03'3 0.9
2017-Oct-15 16:26N 42°21' W 070°59'3 6.0
2017-Oct-15 16:00N 42°22' W 071°02'2 2.9
2017-Oct-15 15:12N 42°20' W 070°60'311.3
2017-Oct-15 14:58N 42°21' W 071°03'3 0.3
2017-Oct-15 01:56N 42°22' W 070°58'2 4.4
2017-Oct-15 01:26N 42°20' W 071°00'2 5.1
2017-Oct-15 01:00N 42°21' W 071°03'3 2.3
2017-Oct-14 23:32N 42°22' W 070°58'118.8
2017-Oct-14 23:29N 42°21' W 070°59'3 5.7
2017-Oct-14 22:59N 42°21' W 071°03'2 2.8
2017-Oct-14 22:20N 42°20' W 071°00'2 5.8
2017-Oct-14 22:01N 42°21' W 071°03'3 5.0
2017-Oct-14 21:23N 42°22' W 070°58'3 8.7
2017-Oct-14 21:00N 42°21' W 071°03'3 3.4
2017-Oct-14 20:15N 42°20' W 071°00'310.3
2017-Oct-14 20:00N 42°21' W 071°03'3 0.9
2017-Oct-14 16:33N 42°21' W 070°59'118.7
2017-Oct-14 16:30N 42°21' W 070°59'3 6.3
2017-Oct-14 16:00N 42°22' W 071°03'3 3.2
2017-Oct-14 15:11N 42°20' W 071°00'3 9.3
2017-Oct-14 14:54N 42°21' W 071°03'3 5.6
2017-Oct-14 14:18N 42°22' W 070°58'1 0.1
2017-Oct-13 22:56N 42°21' W 070°59'1 2.8
2017-Oct-13 22:25N 42°20' W 070°60'2 4.2
2017-Oct-13 22:00N 42°21' W 071°01'2 3.2
2017-Oct-13 21:17N 42°22' W 070°59'3 7.3
2017-Oct-13 20:50N 42°19' W 071°01'3 6.1
2017-Oct-13 20:25N 42°21' W 071°03'3 5.1
2017-Oct-13 19:48N 42°21' W 070°59'3 9.9
2017-Oct-13 19:29N 42°21' W 071°03'3 0.9
2017-Oct-13 15:48N 42°22' W 070°59'3 5.2
2017-Oct-13 15:16N 42°22' W 071°02'1 2.0
2017-Oct-13 14:59N 42°21' W 071°03'2 3.3
2017-Oct-13 14:18N 42°20' W 071°00'2 7.3
2017-Oct-13 14:00N 42°21' W 071°03'3 3.0
2017-Oct-13 12:55N 42°22' W 070°58'3 5.5
2017-Oct-13 12:20N 42°21' W 071°03'3 5.5
2017-Oct-13 11:47N 42°22' W 070°59'3 5.5
2017-Oct-13 11:14N 42°19' W 071°01'4 7.1
2017-Oct-13 10:44N 42°22' W 070°58'0 0.0
2017-Oct-13 10:26N 42°22' W 070°58'0 0.0
2017-Oct-13 09:56N 42°22' W 070°58'0 0.0
2017-Oct-13 09:29N 42°22' W 070°58'0 0.0
2017-Oct-13 08:59N 42°22' W 070°58'0 0.0
2017-Oct-13 08:20N 42°22' W 070°58'0 0.0
2017-Oct-13 07:59N 42°22' W 070°58'0 0.0
2017-Oct-13 07:29N 42°22' W 070°58'0 0.0
2017-Oct-13 06:56N 42°22' W 070°58'0 0.0
2017-Oct-13 06:26N 42°22' W 070°58'0 0.0
2017-Oct-13 05:59N 42°22' W 070°58'0 0.0
2017-Oct-13 05:29N 42°22' W 070°58'0 0.0
2017-Oct-13 04:58N 42°22' W 070°58'0 0.0
2017-Oct-13 04:22N 42°22' W 070°58'0 0.0
2017-Oct-13 03:58N 42°22' W 070°58'0 0.0
2017-Oct-13 03:25N 42°22' W 070°58'0 0.0
2017-Oct-13 02:58N 42°22' W 070°58'0 0.0
2017-Oct-13 02:25N 42°22' W 070°58'0 0.0
2017-Oct-13 01:58N 42°22' W 070°58'0 0.0
2017-Oct-13 01:25N 42°22' W 070°58'0 0.0
2017-Oct-13 00:58N 42°22' W 070°58'1 1.9
2017-Oct-13 00:19N 42°21' W 070°59'3 7.5
2017-Oct-12 23:54N 42°21' W 071°03'3 3.5
2017-Oct-12 22:58N 42°22' W 070°59'2 3.7
2017-Oct-12 22:23N 42°20' W 070°60'1 3.4
2017-Oct-12 22:00N 42°21' W 071°01'2 3.5
2017-Oct-12 21:29N 42°22' W 070°59'3 3.7
2017-Oct-12 20:48N 42°19' W 071°01'2 5.5
2017-Oct-12 20:21N 42°21' W 071°03'3 4.5
2017-Oct-12 19:42N 42°21' W 070°59'314.2
2017-Oct-12 19:29N 42°21' W 071°03'3 0.9
2017-Oct-12 15:31N 42°22' W 070°58'0 5.2
2017-Oct-12 15:26N 42°22' W 070°59'2 4.8
2017-Oct-12 14:54N 42°22' W 071°02'4 7.7
2017-Oct-12 14:27N 42°18' W 071°02'3 7.2
2017-Oct-12 13:59N 42°21' W 071°03'3 2.5
2017-Oct-12 12:47N 42°21' W 070°59'310.4
2017-Oct-12 12:29N 42°21' W 071°03'3 6.5
2017-Oct-12 12:00N 42°21' W 070°59'2 2.7
2017-Oct-12 11:06N 42°19' W 071°01'222.4
2017-Oct-12 11:00N 42°21' W 070°59'1 2.4
2017-Oct-12 10:26N 42°22' W 070°58'0 0.0
2017-Oct-11 23:03N 42°22' W 070°58'1 7.8
2017-Oct-11 22:56N 42°21' W 070°59'1 2.2
2017-Oct-11 22:22N 42°20' W 070°59'2 5.7
2017-Oct-11 21:58N 42°21' W 071°02'2 3.2
2017-Oct-11 21:12N 42°21' W 070°59'1 2.8
2017-Oct-11 20:47N 42°20' W 071°00'2 6.1
2017-Oct-11 20:24N 42°21' W 071°03'3 4.4
2017-Oct-11 19:42N 42°21' W 070°59'315.2
2017-Oct-11 19:30N 42°21' W 071°03'3 4.1
2017-Oct-11 18:40N 42°22' W 070°58'0 0.0
2017-Oct-11 18:10N 42°22' W 070°58'0 0.0
2017-Oct-11 17:58N 42°22' W 070°58'0 0.0
2017-Oct-11 17:28N 42°22' W 070°58'0 0.0
2017-Oct-11 16:58N 42°22' W 070°58'0 0.0
2017-Oct-10 22:56N 42°22' W 070°59'1 2.1
2017-Oct-10 22:23N 42°20' W 070°59'2 4.3
2017-Oct-10 21:59N 42°21' W 071°01'2 3.8
2017-Oct-10 21:30N 42°21' W 070°59'1 1.8
2017-Oct-10 20:46N 42°20' W 071°00'2 7.7
2017-Oct-10 20:27N 42°21' W 071°03'3 4.6
2017-Oct-10 19:46N 42°21' W 070°59'3 8.4
2017-Oct-10 19:23N 42°21' W 071°03'3 0.8
2017-Oct-10 15:33N 42°21' W 070°59'117.1
2017-Oct-10 15:30N 42°20' W 070°60'3 4.8
2017-Oct-10 14:59N 42°21' W 071°03'0 0.2
2017-Oct-10 13:58N 42°21' W 071°03'3 2.9
2017-Oct-10 12:54N 42°22' W 070°58'3 6.8
2017-Oct-10 12:24N 42°21' W 071°03'3 7.7
2017-Oct-10 12:00N 42°21' W 070°59'2 1.9
2017-Oct-10 11:07N 42°20' W 070°60'2 5.2
2017-Oct-10 10:40N 42°22' W 070°58'0 0.0
2017-Oct-09 23:12N 42°22' W 070°58'1 4.5
2017-Oct-09 23:00N 42°21' W 070°59'2 2.6
2017-Oct-09 22:25N 42°20' W 070°60'3 5.4
2017-Oct-09 21:56N 42°21' W 071°03'3 4.2
2017-Oct-09 21:15N 42°21' W 070°59'1 2.9
2017-Oct-09 20:48N 42°20' W 070°60'3 6.4
2017-Oct-09 20:25N 42°21' W 071°03'3 5.3
2017-Oct-09 19:49N 42°22' W 070°59'310.0
2017-Oct-09 19:29N 42°21' W 071°03'3 0.8
2017-Oct-09 15:27N 42°22' W 070°58'2 4.0
2017-Oct-09 14:52N 42°21' W 071°01'2 3.2
2017-Oct-09 14:22N 42°20' W 070°60'3 6.4
2017-Oct-09 13:58N 42°21' W 071°03'3 3.2
2017-Oct-09 12:56N 42°22' W 070°58'3 7.8
2017-Oct-09 12:30N 42°21' W 071°03'3 6.2
2017-Oct-09 11:57N 42°22' W 070°58'2 2.6
2017-Oct-09 11:07N 42°20' W 070°59'2 5.2
2017-Oct-09 10:43N 42°22' W 070°58'0 0.0
2017-Oct-08 23:46N 42°22' W 070°58'2 7.1
2017-Oct-08 23:30N 42°20' W 070°60'  

Dump ship's entire track history